createdAt,value
2023-04-11T00:00:50.915Z,90.87
2023-04-11T00:03:17.785Z,90.55
2023-04-11T00:05:44.506Z,90.58
2023-04-11T00:08:11.180Z,88.54
2023-04-11T00:10:37.969Z,87.97
2023-04-11T00:13:04.822Z,89.58
2023-04-11T00:15:31.446Z,92.47
2023-04-11T00:17:58.127Z,92.60
2023-04-11T00:20:24.827Z,92.78
2023-04-11T00:22:51.446Z,94.51
2023-04-11T00:25:18.329Z,93.44
2023-04-11T00:27:44.940Z,93.73
2023-04-11T00:30:11.867Z,95.18
2023-04-11T00:32:38.600Z,94.29
2023-04-11T00:35:05.781Z,94.32
2023-04-11T00:37:32.475Z,94.21
2023-04-11T00:39:59.107Z,94.49
2023-04-11T00:42:25.768Z,93.48
2023-04-11T00:44:52.568Z,93.58
2023-04-11T00:47:19.899Z,92.15
2023-04-11T00:49:46.815Z,92.42
2023-04-11T00:52:13.669Z,91.66
2023-04-11T00:54:40.503Z,91.75
2023-04-11T00:57:08.134Z,90.37
2023-04-11T00:59:35.417Z,91.55
2023-04-11T01:02:02.221Z,92.84
2023-04-11T01:04:29.030Z,93.72
2023-04-11T01:07:05.521Z,93.81
2023-04-11T01:09:34.641Z,92.59
2023-04-11T01:12:03.496Z,92.98
2023-04-11T01:14:30.344Z,92.68
2023-04-11T01:16:58.082Z,91.94
2023-04-11T01:19:26.315Z,90.81
2023-04-11T01:21:54.586Z,90.16
2023-04-11T01:24:21.189Z,90.22
2023-04-11T01:26:47.992Z,89.58
2023-04-11T01:29:14.635Z,91.23
2023-04-11T01:31:41.312Z,90.26
2023-04-11T01:34:08.360Z,90.12
2023-04-11T01:36:35.160Z,89.97
2023-04-11T01:39:01.858Z,89.81
2023-04-11T01:41:30.631Z,90.13
2023-04-11T01:43:57.399Z,92.25
2023-04-11T01:46:25.328Z,94.18
2023-04-11T01:48:56.176Z,94.46
2023-04-11T01:51:23.054Z,91.75
2023-04-11T01:53:49.854Z,91.11
2023-04-11T01:56:16.799Z,89.51
2023-04-11T01:58:43.503Z,89.23
2023-04-11T02:01:10.345Z,88.99
2023-04-11T02:03:37.194Z,90.51
2023-04-11T02:06:04.204Z,91.94
2023-04-11T02:08:31.053Z,91.88
2023-04-11T02:10:57.691Z,92.31
2023-04-11T02:13:24.427Z,93.11
2023-04-11T02:15:51.076Z,95.05
2023-04-11T02:18:17.783Z,97.30
2023-04-11T02:20:44.392Z,96.25
2023-04-11T02:23:11.065Z,95.69
2023-04-11T02:25:37.703Z,97.94
2023-04-11T02:28:06.730Z,98.57
2023-04-11T02:30:34.709Z,98.95
2023-04-11T02:33:01.655Z,98.14
2023-04-11T02:35:28.389Z,97.28
2023-04-11T02:37:55.143Z,97.28
2023-04-11T02:40:21.842Z,98.54
2023-04-11T02:42:48.549Z,97.65
2023-04-11T02:45:15.160Z,97.73
2023-04-11T02:47:41.864Z,97.75
2023-04-11T02:50:08.985Z,97.59
2023-04-11T02:52:35.715Z,97.12
2023-04-11T02:55:02.493Z,96.67
2023-04-11T02:57:29.160Z,99.09
2023-04-11T02:59:55.777Z,100.00
2023-04-11T03:02:22.900Z,100.00
2023-04-11T03:04:49.710Z,99.74
2023-04-11T03:07:16.341Z,100.00
2023-04-11T03:09:43.051Z,98.19
2023-04-11T03:12:09.698Z,99.30
2023-04-11T03:14:36.383Z,98.56
2023-04-11T03:17:03.024Z,98.93
2023-04-11T03:19:29.665Z,98.33
2023-04-11T03:21:56.689Z,96.52
2023-04-11T03:24:23.423Z,97.91
2023-04-11T03:26:50.015Z,97.23
2023-04-11T03:29:16.693Z,98.93
2023-04-11T03:31:46.141Z,99.96
2023-04-11T03:34:12.819Z,99.83
2023-04-11T03:36:39.612Z,99.24
2023-04-11T03:39:06.263Z,99.37
2023-04-11T03:41:32.959Z,100.00
2023-04-11T03:43:59.651Z,99.02
2023-04-11T03:46:26.417Z,96.38
2023-04-11T03:48:53.365Z,97.93
2023-04-11T03:51:20.130Z,98.72
2023-04-11T03:53:46.729Z,99.09
2023-04-11T03:56:13.435Z,100.00
2023-04-11T03:58:40.080Z,98.82
2023-04-11T04:01:07.929Z,99.29
2023-04-11T04:03:35.090Z,99.17
2023-04-11T04:06:02.149Z,99.26
2023-04-11T04:08:29.021Z,97.54
2023-04-11T04:10:55.679Z,100.00
2023-04-11T04:13:22.289Z,100.00
2023-04-11T04:15:50.461Z,100.00
2023-04-11T04:18:17.511Z,100.00
2023-04-11T04:20:44.450Z,100.00
2023-04-11T04:23:11.302Z,99.56
2023-04-11T04:25:38.003Z,100.00
2023-04-11T04:28:04.746Z,100.00
2023-04-11T04:30:31.388Z,100.00
2023-04-11T04:32:58.106Z,100.00
2023-04-11T04:35:26.166Z,100.00
2023-04-11T04:37:52.931Z,100.00
2023-04-11T04:40:19.626Z,100.00
2023-04-11T04:42:46.927Z,99.71
2023-04-11T04:45:13.533Z,100.00
2023-04-11T04:47:40.205Z,100.00
2023-04-11T04:50:07.755Z,100.00
2023-04-11T04:52:34.473Z,100.00
2023-04-11T04:55:01.242Z,100.00
2023-04-11T04:57:29.754Z,100.00
2023-04-11T04:59:57.898Z,100.00
2023-04-11T05:02:24.995Z,100.00
2023-04-11T05:04:51.896Z,100.00
2023-04-11T05:07:18.524Z,100.00
2023-04-11T05:09:45.152Z,100.00
2023-04-11T05:12:11.817Z,100.00
2023-04-11T05:14:38.443Z,100.00
2023-04-11T05:17:05.202Z,100.00
2023-04-11T05:19:32.057Z,100.00
2023-04-11T05:21:58.710Z,100.00
2023-04-11T05:24:25.351Z,100.00
2023-04-11T05:26:52.084Z,100.00
2023-04-11T05:29:18.712Z,100.00
2023-04-11T05:31:45.339Z,100.00
2023-04-11T05:34:12.061Z,100.00
2023-04-11T05:36:38.679Z,100.00
2023-04-11T05:39:05.330Z,100.00
2023-04-11T05:41:32.070Z,100.00
2023-04-11T05:43:58.733Z,100.00
2023-04-11T05:46:25.386Z,100.00
2023-04-11T05:48:52.280Z,100.00
2023-04-11T05:51:18.981Z,100.00
2023-04-11T05:53:45.739Z,100.00
2023-04-11T05:56:12.379Z,100.00
2023-04-11T05:58:39.474Z,100.00
2023-04-11T06:01:06.156Z,100.00
2023-04-11T06:03:33.023Z,100.00
2023-04-11T06:06:00.262Z,100.00
2023-04-11T06:08:26.896Z,100.00
2023-04-11T06:10:53.554Z,100.00
2023-04-11T06:13:20.190Z,100.00
2023-04-11T06:15:46.949Z,100.00
2023-04-11T06:18:13.678Z,100.00
2023-04-11T06:20:40.336Z,100.00
2023-04-11T06:23:06.920Z,100.00
2023-04-11T06:25:33.634Z,100.00
2023-04-11T06:28:00.271Z,100.00
2023-04-11T06:30:27.022Z,100.00
2023-04-11T06:32:53.864Z,100.00
2023-04-11T06:35:20.621Z,100.00
2023-04-11T06:37:47.316Z,100.00
2023-04-11T06:40:14.060Z,100.00
2023-04-11T06:42:42.284Z,100.00
2023-04-11T06:45:10.153Z,96.02
2023-04-11T06:47:36.935Z,93.37
2023-04-11T06:50:03.719Z,96.81
2023-04-11T06:52:30.477Z,96.15
2023-04-11T06:54:57.231Z,92.28
2023-04-11T06:57:23.965Z,95.50
2023-04-11T06:59:50.677Z,97.76
2023-04-11T07:02:17.458Z,100.00
2023-04-11T07:04:44.299Z,100.00
2023-04-11T07:07:11.124Z,100.00
2023-04-11T07:09:37.809Z,93.76
2023-04-11T07:12:04.697Z,86.14
2023-04-11T07:14:31.728Z,91.24
2023-04-11T07:16:58.424Z,89.04
2023-04-11T07:19:25.086Z,91.43
2023-04-11T07:21:51.801Z,85.34
2023-04-11T07:24:18.502Z,87.68
2023-04-11T07:26:45.510Z,85.02
2023-04-11T07:29:14.419Z,83.96
2023-04-11T07:31:41.727Z,87.67
2023-04-11T07:34:08.409Z,85.93
2023-04-11T07:36:35.048Z,83.87
2023-04-11T07:39:02.251Z,83.33
2023-04-11T07:41:28.900Z,77.43
2023-04-11T07:43:55.681Z,81.55
2023-04-11T07:46:22.549Z,78.63
2023-04-11T07:48:49.185Z,81.11
2023-04-11T07:51:15.820Z,82.16
2023-04-11T07:53:42.482Z,77.92
2023-04-11T07:56:10.442Z,81.12
2023-04-11T07:58:37.209Z,77.80
2023-04-11T08:01:03.961Z,79.46
2023-04-11T08:03:30.853Z,79.39
2023-04-11T08:05:57.632Z,77.74
2023-04-11T08:08:24.505Z,77.65
2023-04-11T08:10:52.326Z,76.22
2023-04-11T08:13:19.100Z,77.65
2023-04-11T08:15:45.754Z,75.24
2023-04-11T08:18:12.556Z,75.55
2023-04-11T08:20:39.283Z,76.19
2023-04-11T08:23:08.923Z,75.62
2023-04-11T08:25:35.748Z,76.15
2023-04-11T08:28:02.505Z,78.17
2023-04-11T08:30:29.195Z,77.10
2023-04-11T08:32:55.868Z,75.42
2023-04-11T08:35:22.822Z,74.83
2023-04-11T08:37:49.434Z,72.10
2023-04-11T08:40:16.198Z,73.24
2023-04-11T08:42:43.023Z,74.59
2023-04-11T08:45:10.206Z,68.25
2023-04-11T08:47:36.939Z,72.23
2023-04-11T08:50:04.865Z,71.71
2023-04-11T08:52:31.757Z,70.14
2023-04-11T08:54:58.384Z,66.85
2023-04-11T08:57:31.336Z,67.15
2023-04-11T09:00:00.707Z,68.63
2023-04-11T09:02:27.534Z,69.43
2023-04-11T09:04:54.419Z,70.78
2023-04-11T09:07:21.089Z,69.99
2023-04-11T09:09:47.876Z,70.19
2023-04-11T09:12:14.682Z,70.88
2023-04-11T09:14:41.452Z,69.33
2023-04-11T09:17:08.935Z,69.21
2023-04-11T09:19:35.537Z,71.00
2023-04-11T09:22:03.925Z,73.36
2023-04-11T09:24:31.312Z,68.04
2023-04-11T09:27:10.717Z,67.97
2023-04-11T09:29:42.268Z,67.22
2023-04-11T09:32:27.352Z,68.29
2023-04-11T09:35:13.532Z,66.92
2023-04-11T09:37:44.773Z,65.19
2023-04-11T09:40:12.027Z,66.26
2023-04-11T09:42:38.674Z,70.27
2023-04-11T09:45:05.941Z,69.27
2023-04-11T09:47:33.461Z,65.77
2023-04-11T09:50:00.313Z,66.73
2023-04-11T09:52:30.507Z,68.45
2023-04-11T09:54:57.394Z,66.88
2023-04-11T09:57:25.363Z,67.00
2023-04-11T09:59:52.717Z,65.02
2023-04-11T10:02:19.525Z,62.17
2023-04-11T10:04:46.263Z,62.07
2023-04-11T10:07:14.908Z,64.04
2023-04-11T10:09:42.750Z,61.63
2023-04-11T10:12:09.561Z,61.97
2023-04-11T10:14:39.267Z,63.00
2023-04-11T10:17:21.134Z,64.67
2023-04-11T10:19:49.068Z,62.92
2023-04-11T10:22:40.556Z,61.57
2023-04-11T10:25:18.704Z,63.49
2023-04-11T10:27:52.828Z,62.31
2023-04-11T10:30:39.412Z,61.51
2023-04-11T10:33:16.640Z,64.17
2023-04-11T10:36:08.510Z,62.07
2023-04-11T10:38:45.053Z,59.32
2023-04-11T10:41:26.244Z,58.72
2023-04-11T10:44:21.365Z,62.19
2023-04-11T10:46:54.478Z,56.92
2023-04-11T10:49:38.743Z,57.65
2023-04-11T10:52:22.765Z,59.80
2023-04-11T10:54:51.646Z,57.48
2023-04-11T10:57:18.789Z,57.85
2023-04-11T10:59:51.748Z,60.00
2023-04-11T11:02:18.831Z,56.05
2023-04-11T11:04:46.702Z,60.08
2023-04-11T11:07:14.677Z,59.36
2023-04-11T11:09:41.438Z,58.42
2023-04-11T11:12:08.606Z,55.40
2023-04-11T11:14:35.622Z,55.21
2023-04-11T11:17:02.590Z,56.54
2023-04-11T11:19:30.245Z,54.73
2023-04-11T11:21:56.881Z,55.05
2023-04-11T11:24:26.675Z,52.79
2023-04-11T11:26:54.887Z,53.59
2023-04-11T11:29:31.202Z,56.36
2023-04-11T11:31:59.763Z,53.62
2023-04-11T11:34:31.821Z,50.33
2023-04-11T11:37:00.325Z,51.11
2023-04-11T11:39:29.306Z,52.52
2023-04-11T11:41:56.252Z,52.50
2023-04-11T11:44:24.932Z,57.14
2023-04-11T11:47:05.811Z,52.56
2023-04-11T11:49:54.502Z,52.04
2023-04-11T11:52:35.330Z,53.10
2023-04-11T11:55:03.223Z,50.02
2023-04-11T11:57:29.873Z,47.31
2023-04-11T11:59:58.244Z,48.01
2023-04-11T12:02:26.452Z,49.50
2023-04-11T12:05:01.619Z,50.12
2023-04-11T12:07:36.697Z,50.70
2023-04-11T12:10:05.514Z,50.75
2023-04-11T12:12:37.150Z,47.47
2023-04-11T12:15:11.367Z,45.54
2023-04-11T12:17:38.906Z,49.07
2023-04-11T12:20:06.847Z,48.65
2023-04-11T12:22:34.197Z,52.15
2023-04-11T12:25:08.514Z,51.91
2023-04-11T12:27:36.853Z,52.64
2023-04-11T12:30:04.283Z,51.18
2023-04-11T12:32:31.635Z,51.57
2023-04-11T12:34:58.355Z,49.24
2023-04-11T12:37:24.970Z,47.95
2023-04-11T12:39:51.674Z,47.18
2023-04-11T12:42:20.957Z,47.06
2023-04-11T12:44:51.222Z,50.28
2023-04-11T12:47:18.312Z,48.17
2023-04-11T12:49:45.040Z,50.19
2023-04-11T12:52:11.691Z,46.11
2023-04-11T12:54:38.606Z,45.97
2023-04-11T12:57:05.242Z,45.79
2023-04-11T12:59:32.685Z,46.48
2023-04-11T13:01:59.740Z,44.88
2023-04-11T13:04:26.552Z,46.86
2023-04-11T13:06:53.374Z,45.48
2023-04-11T13:09:20.145Z,46.49
2023-04-11T13:11:46.741Z,44.74
2023-04-11T13:14:13.432Z,44.29
2023-04-11T13:16:40.140Z,46.64
2023-04-11T13:19:06.796Z,47.52
2023-04-11T13:21:33.523Z,46.56
2023-04-11T13:24:00.177Z,45.23
2023-04-11T13:26:26.748Z,46.21
2023-04-11T13:28:53.370Z,46.02
2023-04-11T13:31:20.017Z,47.40
2023-04-11T13:33:46.682Z,47.92
2023-04-11T13:36:13.350Z,46.60
2023-04-11T13:38:39.947Z,46.09
2023-04-11T13:41:06.815Z,46.34
2023-04-11T13:43:33.558Z,46.00
2023-04-11T13:46:00.249Z,45.16
2023-04-11T13:48:26.951Z,46.79
2023-04-11T13:50:53.773Z,46.25
2023-04-11T13:53:20.510Z,46.71
2023-04-11T13:55:47.161Z,46.94
2023-04-11T13:58:14.443Z,44.83
2023-04-11T14:00:41.264Z,44.18
2023-04-11T14:03:08.129Z,43.76
2023-04-11T14:05:34.897Z,43.00
2023-04-11T14:08:03.062Z,43.70
2023-04-11T14:10:29.781Z,44.02
2023-04-11T14:12:56.573Z,44.11
2023-04-11T14:15:23.733Z,42.81
2023-04-11T14:17:50.424Z,42.90
2023-04-11T14:20:17.189Z,43.59
2023-04-11T14:22:44.561Z,42.18
2023-04-11T14:25:11.807Z,43.46
2023-04-11T14:27:39.991Z,44.20
2023-04-11T14:30:11.370Z,44.18
2023-04-11T14:32:38.193Z,45.42
2023-04-11T14:35:05.606Z,44.56
2023-04-11T14:37:32.276Z,44.91
2023-04-11T14:39:58.981Z,44.60
2023-04-11T14:42:25.689Z,45.15
2023-04-11T14:44:52.542Z,45.28
2023-04-11T14:47:19.516Z,44.69
2023-04-11T14:49:46.229Z,43.21
2023-04-11T14:52:12.899Z,43.96
2023-04-11T14:54:39.597Z,45.77
2023-04-11T14:57:06.256Z,47.96
2023-04-11T14:59:33.211Z,50.07
2023-04-11T15:02:00.063Z,50.28
2023-04-11T15:04:26.830Z,52.54
2023-04-11T15:06:53.466Z,52.17
2023-04-11T15:09:20.229Z,53.41
2023-04-11T15:11:47.501Z,54.80
2023-04-11T15:14:14.847Z,55.77
2023-04-11T15:16:41.455Z,57.06
2023-04-11T15:19:08.095Z,57.49
2023-04-11T15:21:34.935Z,59.25
2023-04-11T15:24:01.910Z,58.77
2023-04-11T15:26:28.771Z,59.10
2023-04-11T15:28:55.398Z,60.25
2023-04-11T15:31:26.222Z,61.32
2023-04-11T15:33:55.021Z,62.59
2023-04-11T15:36:21.843Z,64.48
2023-04-11T15:38:48.529Z,67.05
2023-04-11T15:41:15.260Z,69.74
2023-04-11T15:43:41.897Z,71.53
2023-04-11T15:46:08.592Z,74.49
2023-04-11T15:48:35.237Z,81.85
2023-04-11T15:51:08.981Z,86.63
2023-04-11T15:53:35.654Z,91.07
2023-04-11T15:56:06.775Z,94.54
2023-04-11T15:58:33.944Z,95.09
2023-04-11T16:01:00.782Z,100.00
2023-04-11T16:03:28.182Z,100.00
2023-04-11T16:05:54.848Z,100.00
2023-04-11T16:08:21.454Z,100.00
2023-04-11T16:10:48.114Z,100.00
2023-04-11T16:13:14.849Z,100.00
2023-04-11T16:15:41.469Z,100.00
2023-04-11T16:18:08.132Z,100.00
2023-04-11T16:20:34.758Z,100.00
2023-04-11T16:23:01.512Z,100.00
2023-04-11T16:25:28.111Z,100.00
2023-04-11T16:27:55.046Z,100.00
2023-04-11T16:30:21.690Z,100.00
2023-04-11T16:32:48.629Z,100.00
2023-04-11T16:35:15.334Z,100.00
2023-04-11T16:37:41.921Z,100.00
2023-04-11T16:40:09.176Z,100.00
2023-04-11T16:42:35.789Z,100.00
2023-04-11T16:45:02.424Z,100.00
2023-04-11T16:47:29.100Z,100.00
2023-04-11T16:49:56.602Z,100.00
2023-04-11T16:52:23.648Z,100.00
2023-04-11T16:54:50.996Z,100.00
2023-04-11T16:57:17.768Z,100.00
2023-04-11T16:59:44.580Z,100.00
2023-04-11T17:02:11.263Z,100.00
2023-04-11T17:04:37.998Z,100.00
2023-04-11T17:07:04.932Z,100.00
2023-04-11T17:09:31.566Z,100.00
2023-04-11T17:11:58.491Z,100.00
2023-04-11T17:14:25.168Z,100.00
2023-04-11T17:16:51.900Z,98.21
2023-04-11T17:19:18.564Z,98.94
2023-04-11T17:21:45.257Z,100.00
2023-04-11T17:24:12.009Z,100.00
2023-04-11T17:26:38.650Z,98.75
2023-04-11T17:29:05.227Z,99.26
2023-04-11T17:31:32.066Z,98.54
2023-04-11T17:33:59.281Z,99.90
2023-04-11T17:36:26.101Z,97.83
2023-04-11T17:38:52.689Z,99.28
2023-04-11T17:41:19.328Z,96.87
2023-04-11T17:43:46.092Z,100.00
2023-04-11T17:46:12.774Z,98.50
2023-04-11T17:48:39.482Z,96.04
2023-04-11T17:51:06.672Z,97.00
2023-04-11T17:53:33.562Z,97.07
2023-04-11T17:56:04.108Z,99.77
2023-04-11T17:58:30.747Z,98.53
2023-04-11T18:00:57.458Z,97.90
2023-04-11T18:03:24.799Z,97.09
2023-04-11T18:05:51.752Z,97.58
2023-04-11T18:08:18.683Z,96.08
2023-04-11T18:10:45.315Z,98.33
2023-04-11T18:13:13.163Z,100.00
2023-04-11T18:15:41.699Z,97.39
2023-04-11T18:18:08.389Z,100.00
2023-04-11T18:20:36.278Z,99.49
2023-04-11T18:23:02.920Z,99.43
2023-04-11T18:25:30.108Z,99.10
2023-04-11T18:27:56.958Z,97.98
2023-04-11T18:30:23.949Z,98.94
2023-04-11T18:32:51.132Z,100.00
2023-04-11T18:35:18.137Z,99.57
2023-04-11T18:37:45.190Z,98.47
2023-04-11T18:40:14.623Z,99.85
2023-04-11T18:42:44.198Z,100.00
2023-04-11T18:45:12.166Z,98.00
2023-04-11T18:47:40.298Z,100.00
2023-04-11T18:50:08.308Z,100.00
2023-04-11T18:52:35.669Z,100.00
2023-04-11T18:55:05.056Z,100.00
2023-04-11T18:57:34.025Z,100.00
2023-04-11T19:00:04.500Z,99.53
2023-04-11T19:02:32.125Z,100.00
2023-04-11T19:04:58.876Z,100.00
2023-04-11T19:07:25.570Z,100.00
2023-04-11T19:09:52.296Z,100.00
2023-04-11T19:12:19.178Z,100.00
2023-04-11T19:14:46.094Z,100.00
2023-04-11T19:17:13.040Z,100.00
2023-04-11T19:19:39.777Z,100.00
2023-04-11T19:22:06.489Z,100.00
2023-04-11T19:24:33.177Z,99.04
2023-04-11T19:26:59.968Z,95.60
2023-04-11T19:29:26.628Z,95.83
2023-04-11T19:31:53.398Z,98.09
2023-04-11T19:34:20.258Z,98.86
2023-04-11T19:36:46.908Z,97.72
2023-04-11T19:39:15.005Z,98.63
2023-04-11T19:41:45.154Z,99.48
2023-04-11T19:44:12.097Z,99.78
2023-04-11T19:46:39.499Z,97.44
2023-04-11T19:49:09.155Z,97.99
2023-04-11T19:51:36.151Z,95.21
2023-04-11T19:54:02.863Z,97.27
2023-04-11T19:56:29.543Z,96.99
2023-04-11T19:58:56.224Z,96.26
2023-04-11T20:01:25.923Z,96.18
2023-04-11T20:03:52.614Z,94.37
2023-04-11T20:06:19.264Z,93.56
2023-04-11T20:08:45.886Z,93.60
2023-04-11T20:11:15.937Z,94.13
2023-04-11T20:13:42.526Z,92.12
2023-04-11T20:16:09.434Z,93.81
2023-04-11T20:18:36.144Z,93.99
2023-04-11T20:21:02.793Z,95.14
2023-04-11T20:23:31.228Z,95.15
2023-04-11T20:25:58.097Z,95.09
2023-04-11T20:28:24.794Z,93.21
2023-04-11T20:30:51.863Z,93.97
2023-04-11T20:33:18.565Z,92.72
2023-04-11T20:35:45.256Z,92.38
2023-04-11T20:38:11.883Z,92.78
2023-04-11T20:40:38.663Z,93.33
2023-04-11T20:43:05.399Z,92.77
2023-04-11T20:45:32.096Z,93.41
2023-04-11T20:47:58.911Z,93.27
2023-04-11T20:50:25.581Z,94.78
2023-04-11T20:52:52.437Z,94.92
2023-04-11T20:55:19.221Z,95.07
2023-04-11T20:57:45.863Z,94.59
2023-04-11T21:00:12.743Z,93.57
2023-04-11T21:02:40.519Z,94.97
2023-04-11T21:05:07.750Z,95.02
2023-04-11T21:07:35.574Z,93.72
2023-04-11T21:10:02.325Z,91.26
2023-04-11T21:12:28.948Z,92.40
2023-04-11T21:14:57.789Z,92.90
2023-04-11T21:17:24.521Z,94.00
2023-04-11T21:19:51.320Z,95.16
2023-04-11T21:22:18.035Z,95.39
2023-04-11T21:24:44.760Z,93.55
2023-04-11T21:27:11.491Z,93.54
2023-04-11T21:29:38.151Z,93.65
2023-04-11T21:32:04.947Z,93.89
2023-04-11T21:34:31.532Z,91.47
2023-04-11T21:36:58.134Z,93.45
2023-04-11T21:39:24.883Z,94.84
2023-04-11T21:41:51.517Z,93.07
2023-04-11T21:44:18.133Z,93.73
2023-04-11T21:46:44.835Z,94.71
2023-04-11T21:49:11.525Z,94.96
2023-04-11T21:51:38.172Z,94.64
2023-04-11T21:54:05.163Z,94.59
2023-04-11T21:56:31.865Z,96.50
2023-04-11T21:58:58.684Z,96.44
2023-04-11T22:01:25.441Z,95.57
2023-04-11T22:03:52.385Z,96.93
2023-04-11T22:06:19.195Z,95.94
2023-04-11T22:08:45.880Z,96.15
2023-04-11T22:11:12.799Z,96.85
2023-04-11T22:13:39.437Z,97.32
2023-04-11T22:16:07.083Z,96.08
2023-04-11T22:18:35.937Z,96.46
2023-04-11T22:21:02.620Z,96.17
2023-04-11T22:23:29.193Z,96.62
2023-04-11T22:25:56.647Z,97.14
2023-04-11T22:28:23.878Z,97.90
2023-04-11T22:30:50.518Z,98.99
2023-04-11T22:33:17.200Z,99.13
2023-04-11T22:35:44.063Z,99.48
2023-04-11T22:38:11.571Z,99.13
2023-04-11T22:40:38.301Z,100.00
2023-04-11T22:43:04.909Z,100.00
2023-04-11T22:45:32.999Z,100.00
2023-04-11T22:48:01.259Z,100.00
2023-04-11T22:50:27.908Z,100.00
2023-04-11T22:52:54.536Z,100.00
2023-04-11T22:55:21.314Z,100.00
2023-04-11T22:57:48.107Z,100.00
2023-04-11T23:00:15.135Z,100.00
2023-04-11T23:02:41.845Z,100.00
2023-04-11T23:05:09.039Z,100.00
2023-04-11T23:07:35.634Z,99.58
2023-04-11T23:10:02.293Z,100.00
2023-04-11T23:12:29.024Z,99.84
2023-04-11T23:14:55.874Z,100.00
2023-04-11T23:17:22.521Z,100.00
2023-04-11T23:19:49.717Z,100.00
2023-04-11T23:22:16.716Z,100.00
2023-04-11T23:24:43.438Z,100.00
2023-04-11T23:27:10.135Z,98.24
2023-04-11T23:29:36.748Z,99.70
2023-04-11T23:32:03.499Z,100.00
2023-04-11T23:34:30.113Z,100.00
2023-04-11T23:36:56.785Z,99.15
2023-04-11T23:39:23.596Z,99.17
2023-04-11T23:41:51.174Z,99.53
2023-04-11T23:44:17.900Z,97.58
2023-04-11T23:46:44.549Z,97.75
2023-04-11T23:49:11.122Z,97.24
2023-04-11T23:51:37.873Z,97.49
2023-04-11T23:54:04.685Z,96.15
2023-04-11T23:56:31.271Z,97.75
2023-04-11T23:58:57.892Z,97.31
